MMPN/UPN METAR and TAF weather

Enter ICAO airport designator
Station Type Date Time Source
MMPN METAR 2020/04/03 00:41 UTC NOAA

MMPN 030041Z 12008KT 7SM SKC 25/11 A3005 RMK HZY TCU N


Station Type Date Time Source
MMPN Decoded METAR 2020/04/03 00:41 UTC NOAA

Uruapan / Gen Rayon, Mexico (MMPN) 19-24N 102-02W
Apr 02, 2020 - 08:41 PM EDT / 2020.04.03 0041 UTC
Wind: from the ESE (120 degrees) at 9 MPH (8 KT):0
Visibility: 7 mile(s):0
Sky conditions: clear
Weather: Towering cumulus clouds observed
Temperature: 77 F (25 C)
Dew Point: 51 F (11 C)
Relative Humidity: 41%
Pressure (altimeter): 30.05 in. Hg (1017 hPa)
ob: MMPN 030041Z 12008KT 7SM SKC 25/11 A3005 RMK HZY TCU N
cycle: 0

Station Type Date Time Source
MMPN TAF 2020/04/03 06:25 UTC NOAA

TAF MMPN 030520Z 0306/0406 12005KT 6SM HZ SKC
FM031800 20010KT 6SM HZ SKC
FM040400 23005KT 6SM HZ SKC

Example: see airport list